Time;durP1;ratioP1;P1;durP2;ratioP2;P2;SDS_P1;SDS_P2;PMS_P1;PMS_P2;Temp;Humidity;BMP_temperature;BMP_pressure;BME280_temperature;BME280_humidity;BME280_pressure;Samples;Min_cycle;Max_cycle;Signal;HPM_P1;HPM_P2
2023/10/31 00:00:33;;;;;;;0.43;0.43;;;;;;;11.48;100.00;96520.63;5076143;28;20248;-73
2023/10/31 00:02:59;;;;;;;2.83;0.60;;;;;;;11.49;100.00;96524.91;5076715;28;20215;-73
2023/10/31 00:05:26;;;;;;;1.40;0.43;;;;;;;11.45;100.00;96521.19;5076526;28;20212;-73
2023/10/31 00:07:52;;;;;;;1.67;0.40;;;;;;;11.40;100.00;96523.78;5076477;28;20244;-73
2023/10/31 00:10:19;;;;;;;0.50;0.50;;;;;;;11.45;100.00;96534.50;5076513;28;20202;-73
2023/10/31 00:12:45;;;;;;;0.53;0.30;;;;;;;11.48;100.00;96536.59;5076526;28;20213;-73
2023/10/31 00:15:11;;;;;;;0.80;0.40;;;;;;;11.49;100.00;96558.72;5076739;28;20602;-73
2023/10/31 00:17:38;;;;;;;1.33;0.50;;;;;;;11.51;100.00;96557.38;5077268;28;20227;-73
2023/10/31 00:20:05;;;;;;;0.40;0.40;;;;;;;11.50;100.00;96562.97;5076302;28;20239;-73
2023/10/31 00:22:31;;;;;;;0.40;0.40;;;;;;;11.41;100.00;96562.69;5077019;28;20289;-73
2023/10/31 00:24:58;;;;;;;0.30;0.30;;;;;;;11.43;100.00;96557.88;5076422;28;20210;-73
2023/10/31 00:27:24;;;;;;;0.40;0.40;;;;;;;11.42;100.00;96560.78;5076155;28;20236;-73
2023/10/31 00:29:51;;;;;;;0.57;0.50;;;;;;;11.47;100.00;96555.50;5075915;28;20573;-73
2023/10/31 00:32:17;;;;;;;1.70;0.47;;;;;;;11.43;100.00;96563.19;5076463;28;20258;-73
2023/10/31 00:34:43;;;;;;;1.33;0.43;;;;;;;11.44;100.00;96572.78;5076055;28;20205;-73
2023/10/31 00:37:10;;;;;;;0.30;0.30;;;;;;;11.44;100.00;96570.13;5076032;28;20197;-73
2023/10/31 00:39:36;;;;;;;0.40;0.40;;;;;;;11.45;100.00;96573.59;5076010;28;20351;-73
2023/10/31 00:42:03;;;;;;;0.83;0.40;;;;;;;11.46;100.00;96581.31;5076100;28;20210;-73
2023/10/31 00:44:29;;;;;;;0.30;0.30;;;;;;;11.46;100.00;96576.00;5075635;28;20593;-73
2023/10/31 00:46:55;;;;;;;0.57;0.50;;;;;;;11.45;100.00;96579.72;5075520;28;20610;-73
2023/10/31 00:49:22;;;;;;;1.70;0.40;;;;;;;11.46;100.00;96575.19;5075766;28;20229;-73
2023/10/31 00:51:48;;;;;;;1.63;0.50;;;;;;;11.47;100.00;96579.44;5075833;28;20209;-73
2023/10/31 00:54:18;;;;;;;0.83;0.40;;;;;;;11.41;100.00;96583.97;5075521;28;20209;-73
2023/10/31 00:56:45;;;;;;;0.50;0.47;;;;;;;11.46;100.00;96585.81;5075497;28;20188;-73
2023/10/31 00:59:12;;;;;;;1.33;0.40;;;;;;;11.46;100.00;96588.50;5075402;28;20243;-73
2023/10/31 01:01:39;;;;;;;0.63;0.50;;;;;;;11.40;100.00;96598.28;5075268;28;20304;-73
2023/10/31 01:04:05;;;;;;;0.73;0.40;;;;;;;11.36;100.00;96597.25;5075574;28;20225;-73
2023/10/31 01:06:32;;;;;;;0.60;0.33;;;;;;;11.34;100.00;96593.25;5075385;28;20224;-73
2023/10/31 01:08:58;;;;;;;0.53;0.37;;;;;;;11.37;100.00;96598.03;5073946;28;20318;-73
2023/10/31 01:11:24;;;;;;;1.60;0.50;;;;;;;11.36;100.00;96594.59;5075359;28;20213;-73
2023/10/31 01:13:51;;;;;;;0.40;0.40;;;;;;;11.32;100.00;96598.81;5075258;28;20270;-73
2023/10/31 01:16:17;;;;;;;0.70;0.43;;;;;;;11.28;100.00;96593.19;5075330;28;20664;-73
2023/10/31 01:18:44;;;;;;;0.30;0.30;;;;;;;11.14;100.00;96588.59;5075021;28;20546;-73
2023/10/31 01:21:11;;;;;;;0.50;0.50;;;;;;;11.13;100.00;96586.19;5074960;28;20664;-73
2023/10/31 01:23:38;;;;;;;2.63;0.60;;;;;;;11.11;100.00;96602.41;5074914;28;20694;-73
2023/10/31 01:26:04;;;;;;;0.70;0.50;;;;;;;11.12;100.00;96606.66;5075052;28;20213;-73
2023/10/31 01:28:30;;;;;;;0.47;0.47;;;;;;;11.01;100.00;96613.00;5074988;28;20225;-73
2023/10/31 01:30:57;;;;;;;0.50;0.50;;;;;;;10.94;100.00;96612.41;5057272;28;20208;-73
2023/10/31 01:33:23;;;;;;;0.57;0.50;;;;;;;10.90;100.00;96628.06;5074847;28;20215;-73
2023/10/31 01:35:49;;;;;;;2.57;0.70;;;;;;;10.79;100.00;96630.91;5074587;28;20292;-73
2023/10/31 01:38:16;;;;;;;1.60;0.40;;;;;;;10.69;100.00;96628.97;5074879;28;20591;-73
2023/10/31 01:40:43;;;;;;;0.63;0.40;;;;;;;10.58;100.00;96642.41;5074918;28;20304;-73
2023/10/31 01:43:09;;;;;;;0.40;0.40;;;;;;;10.59;100.00;96649.34;5074455;28;20597;-73
2023/10/31 01:45:35;;;;;;;0.87;0.43;;;;;;;10.60;100.00;96648.28;5074553;28;20212;-73
2023/10/31 01:48:02;;;;;;;0.93;0.53;;;;;;;10.58;100.00;96642.41;5074622;28;20232;-73
2023/10/31 01:50:28;;;;;;;1.37;0.50;;;;;;;10.57;100.00;96641.63;5074384;28;20570;-73
2023/10/31 01:52:55;;;;;;;2.73;0.60;;;;;;;10.61;100.00;96641.91;5074275;28;20216;-73
2023/10/31 01:55:22;;;;;;;0.80;0.40;;;;;;;10.62;100.00;96652.31;5074556;28;20205;-73
2023/10/31 01:57:49;;;;;;;1.90;0.73;;;;;;;10.55;100.00;96657.00;5074433;28;20275;-73
2023/10/31 02:00:17;;;;;;;0.97;0.50;;;;;;;10.50;100.00;96654.31;5074020;28;20580;-73
2023/10/31 02:02:43;;;;;;;1.27;0.40;;;;;;;10.57;100.00;96662.88;5074593;28;20660;-73
2023/10/31 02:05:10;;;;;;;0.53;0.53;;;;;;;10.51;100.00;96663.09;5074400;28;20211;-73
2023/10/31 02:07:37;;;;;;;1.43;0.50;;;;;;;10.52;100.00;96665.50;5073772;28;20311;-73
2023/10/31 02:10:03;;;;;;;0.60;0.30;;;;;;;10.55;100.00;96669.50;5074315;28;20236;-73
2023/10/31 02:12:37;;;;;;;2.10;0.60;;;;;;;10.49;100.00;96671.31;5074176;28;20206;-73
2023/10/31 02:15:05;;;;;;;0.50;0.50;;;;;;;10.52;100.00;96677.97;5074154;28;20240;-73
2023/10/31 02:17:31;;;;;;;0.40;0.40;;;;;;;10.46;100.00;96684.31;5074054;28;20307;-73
2023/10/31 02:19:58;;;;;;;0.80;0.50;;;;;;;10.41;100.00;96682.38;5073703;28;20204;-73
2023/10/31 02:22:24;;;;;;;2.27;0.60;;;;;;;10.39;100.00;96676.53;5073792;28;20236;-73
2023/10/31 02:24:50;;;;;;;0.60;0.60;;;;;;;10.31;100.00;96676.16;5074007;28;20205;-73
2023/10/31 02:27:17;;;;;;;1.53;0.50;;;;;;;10.42;100.00;96694.59;5073678;28;20299;-73
2023/10/31 02:29:43;;;;;;;0.87;0.60;;;;;;;10.38;100.00;96685.56;5073962;28;20207;-73
2023/10/31 02:32:10;;;;;;;1.80;0.50;;;;;;;10.35;100.00;96693.19;5073891;28;20205;-73
2023/10/31 02:34:36;;;;;;;2.83;0.70;;;;;;;10.38;100.00;96696.19;5073878;28;20211;-73
2023/10/31 02:37:02;;;;;;;1.57;0.40;;;;;;;10.29;100.00;96703.00;5074186;28;20251;-73
2023/10/31 02:39:29;;;;;;;0.57;0.50;;;;;;;10.29;100.00;96702.19;5073836;28;20289;-73
2023/10/31 02:41:55;;;;;;;7.07;1.10;;;;;;;10.31;100.00;96700.06;5073799;28;20211;-73
2023/10/31 02:44:22;;;;;;;1.30;0.50;;;;;;;10.29;100.00;96696.88;5073674;28;20205;-73
2023/10/31 02:46:48;;;;;;;0.67;0.40;;;;;;;10.25;100.00;96701.06;5073688;28;20224;-73
2023/10/31 02:49:14;;;;;;;5.00;0.80;;;;;;;10.24;100.00;96694.16;5073684;28;20307;-73
2023/10/31 02:51:41;;;;;;;0.70;0.40;;;;;;;10.18;100.00;96692.50;5073468;28;20205;-73
2023/10/31 02:54:07;;;;;;;1.90;0.70;;;;;;;10.26;100.00;96695.53;5073752;28;20208;-73
2023/10/31 02:56:33;;;;;;;0.43;0.40;;;;;;;10.25;100.00;96704.53;5073224;28;20573;-73
2023/10/31 02:59:00;;;;;;;0.73;0.40;;;;;;;10.26;100.00;96713.28;5073816;28;20225;-73
2023/10/31 03:01:29;;;;;;;0.63;0.50;;;;;;;10.21;100.00;96714.06;5073297;28;20258;-73
2023/10/31 03:03:56;;;;;;;0.70;0.50;;;;;;;10.23;100.00;96716.47;5073248;28;20659;-73
2023/10/31 03:06:22;;;;;;;0.43;0.43;;;;;;;10.21;100.00;96721.22;5073178;28;20205;-73
2023/10/31 03:08:49;;;;;;;1.93;0.50;;;;;;;10.13;100.00;96726.94;5073858;28;20228;-73
2023/10/31 03:11:25;;;;;;;2.30;0.40;;;;;;;10.17;100.00;96728.88;5073051;28;20663;-73
2023/10/31 03:13:52;;;;;;;1.90;0.50;;;;;;;10.24;100.00;96726.03;5073636;28;20603;-73
2023/10/31 03:16:19;;;;;;;0.93;0.43;;;;;;;10.25;100.00;96722.31;5073577;28;20204;-73
2023/10/31 03:18:46;;;;;;;1.50;0.50;;;;;;;10.32;100.00;96739.66;5073370;28;20255;-73
2023/10/31 03:21:13;;;;;;;0.57;0.47;;;;;;;10.31;100.00;96737.25;5073540;28;20214;-73
2023/10/31 03:23:39;;;;;;;1.60;0.40;;;;;;;10.32;100.00;96736.22;5074175;28;20270;-73
2023/10/31 03:26:06;;;;;;;0.90;0.40;;;;;;;10.30;100.00;96746.28;5073425;28;20208;-73
2023/10/31 03:28:32;;;;;;;2.20;0.50;;;;;;;10.33;100.00;96743.13;5073127;28;20228;-73
2023/10/31 03:30:58;;;;;;;2.37;0.50;;;;;;;10.31;100.00;96740.72;5073157;28;20205;-73
2023/10/31 03:33:25;;;;;;;1.53;0.40;;;;;;;10.31;100.00;96748.69;5076902;28;20755;-73
2023/10/31 03:35:51;;;;;;;0.40;0.40;;;;;;;10.34;100.00;96748.19;5076866;28;20615;-73
2023/10/31 03:38:18;;;;;;;0.93;0.60;;;;;;;10.31;100.00;96738.06;5076561;28;20730;-73
2023/10/31 03:40:44;;;;;;;1.13;0.50;;;;;;;10.34;100.00;96736.75;5077304;28;20291;-73
2023/10/31 03:43:11;;;;;;;1.00;0.70;;;;;;;10.31;100.00;96742.56;5076869;28;20214;-73
2023/10/31 03:45:37;;;;;;;2.20;0.60;;;;;;;10.27;100.00;96746.78;5076864;28;20337;-74
2023/10/31 03:48:04;;;;;;;1.73;0.60;;;;;;;10.24;100.00;96742.78;5076890;28;20237;-74
2023/10/31 03:50:31;;;;;;;0.93;0.33;;;;;;;10.20;100.00;96741.66;5076904;28;20277;-74
2023/10/31 03:52:57;;;;;;;0.83;0.53;;;;;;;10.25;100.00;96748.88;5076639;28;20295;-74
2023/10/31 03:55:23;;;;;;;0.77;0.60;;;;;;;10.24;100.00;96742.78;5076166;28;20754;-74
2023/10/31 03:57:50;;;;;;;0.73;0.60;;;;;;;10.28;100.00;96737.78;5076490;28;20308;-74
2023/10/31 04:00:17;;;;;;;0.97;0.60;;;;;;;10.25;100.00;96744.38;5076456;28;20227;-74
2023/10/31 04:02:43;;;;;;;3.50;0.70;;;;;;;10.20;100.00;96744.31;5077239;28;20235;-74
2023/10/31 04:05:10;;;;;;;1.83;0.70;;;;;;;10.20;100.00;96757.59;5076158;28;20678;-74
2023/10/31 04:07:36;;;;;;;1.30;0.60;;;;;;;10.16;100.00;96751.19;5076377;28;20319;-74
2023/10/31 04:10:03;;;;;;;1.33;0.50;;;;;;;10.10;100.00;96752.16;5076430;28;20201;-74
2023/10/31 04:12:29;;;;;;;2.37;0.60;;;;;;;10.13;100.00;96761.47;5076270;28;20231;-74
2023/10/31 04:14:56;;;;;;;0.90;0.57;;;;;;;10.08;100.00;96766.72;5075939;28;20732;-74
2023/10/31 04:17:23;;;;;;;0.93;0.60;;;;;;;10.03;100.00;96763.97;5076212;28;20217;-73
2023/10/31 04:19:49;;;;;;;2.70;0.60;;;;;;;10.05;100.00;96775.97;5076623;28;20204;-74
2023/10/31 04:22:15;;;;;;;1.10;0.50;;;;;;;10.09;100.00;96760.38;5076202;28;20687;-74
2023/10/31 04:24:42;;;;;;;1.70;0.87;;;;;;;10.10;100.00;96768.06;5076569;28;20205;-74
2023/10/31 04:27:09;;;;;;;2.97;0.77;;;;;;;10.09;100.00;96763.03;5075946;28;20228;-74
2023/10/31 04:29:35;;;;;;;0.47;0.43;;;;;;;10.05;100.00;96765.38;5075951;28;20240;-74
2023/10/31 04:32:02;;;;;;;0.47;0.47;;;;;;;9.91;100.00;96764.09;5076248;28;20201;-74
2023/10/31 04:34:28;;;;;;;1.03;0.40;;;;;;;9.94;100.00;96768.91;5076287;28;20204;-74
2023/10/31 04:36:54;;;;;;;2.07;0.70;;;;;;;9.93;100.00;96774.47;5075807;28;20316;-74
2023/10/31 04:39:21;;;;;;;0.50;0.50;;;;;;;9.99;100.00;96781.44;5075975;28;20235;-74
2023/10/31 04:41:47;;;;;;;0.80;0.47;;;;;;;9.95;100.00;96788.28;5075569;28;20216;-74
2023/10/31 04:44:14;;;;;;;0.60;0.50;;;;;;;9.95;100.00;96780.31;5075665;28;20683;-74
2023/10/31 04:46:40;;;;;;;0.80;0.40;;;;;;;9.93;100.00;96772.63;5075846;28;20204;-74
2023/10/31 04:49:07;;;;;;;1.87;0.40;;;;;;;9.94;100.00;96784.03;5075310;28;20228;-74
2023/10/31 04:51:37;;;;;;;1.03;0.47;;;;;;;10.08;100.00;96787.97;5075562;28;20204;-74
2023/10/31 04:54:04;;;;;;;4.50;0.50;;;;;;;10.05;100.00;96789.25;5075565;28;20193;-74
2023/10/31 04:56:31;;;;;;;1.13;0.60;;;;;;;10.00;100.00;96785.72;5075473;28;20211;-74
2023/10/31 04:58:57;;;;;;;0.63;0.40;;;;;;;9.98;100.00;96785.97;5075355;28;20706;-74
2023/10/31 05:01:24;;;;;;;0.50;0.50;;;;;;;9.95;100.00;96781.13;5075153;28;20213;-74
2023/10/31 05:03:50;;;;;;;0.50;0.50;;;;;;;9.95;100.00;96797.06;5074994;28;20683;-74
2023/10/31 05:06:21;;;;;;;1.33;0.50;;;;;;;9.94;100.00;96799.97;5076269;28;20212;-74
2023/10/31 05:08:48;;;;;;;1.00;0.60;;;;;;;9.86;100.00;96798.53;5074965;28;20228;-74
2023/10/31 05:11:14;;;;;;;0.70;0.50;;;;;;;9.81;100.00;96808.25;5075169;28;20234;-74
2023/10/31 05:13:41;;;;;;;0.43;0.30;;;;;;;9.73;100.00;96798.09;5074917;28;20204;-74
2023/10/31 05:16:08;;;;;;;1.13;0.60;;;;;;;9.61;100.00;96814.09;5075224;28;20204;-74
2023/10/31 05:18:37;;;;;;;1.03;0.50;;;;;;;9.59;100.00;96818.84;5074658;28;20229;-74
2023/10/31 05:21:03;;;;;;;2.47;0.50;;;;;;;9.53;100.00;96811.84;5074923;28;20207;-74
2023/10/31 05:23:30;;;;;;;2.37;0.57;;;;;;;9.53;100.00;96808.38;5074694;28;20197;-74
2023/10/31 05:25:56;;;;;;;1.70;0.80;;;;;;;9.50;100.00;96808.88;5074793;28;20235;-74
2023/10/31 05:28:23;;;;;;;1.23;0.80;;;;;;;9.54;100.00;96823.25;5074719;28;20758;-74
2023/10/31 05:30:49;;;;;;;0.50;0.50;;;;;;;9.49;100.00;96810.72;5075111;28;20236;-74
2023/10/31 05:33:19;;;;;;;0.53;0.53;;;;;;;9.52;100.00;96818.22;5074608;28;20211;-74
2023/10/31 05:35:46;;;;;;;0.67;0.60;;;;;;;9.51;100.00;96810.50;5074420;28;20210;-74
2023/10/31 05:38:12;;;;;;;0.80;0.60;;;;;;;9.47;100.00;96814.66;5074241;28;20302;-74
2023/10/31 05:40:39;;;;;;;0.73;0.60;;;;;;;9.46;100.00;96813.06;5074254;28;20221;-74
2023/10/31 05:43:05;;;;;;;1.40;0.50;;;;;;;9.52;100.00;96828.81;5074512;28;20204;-74
2023/10/31 05:45:32;;;;;;;0.83;0.53;;;;;;;9.52;100.00;96820.06;5074155;28;20229;-74
2023/10/31 05:47:59;;;;;;;2.63;0.70;;;;;;;9.45;100.00;96827.34;5073993;28;20688;-74
2023/10/31 05:50:25;;;;;;;2.53;0.60;;;;;;;9.38;100.00;96822.22;5074183;28;20574;-74
2023/10/31 05:52:52;;;;;;;0.53;0.47;;;;;;;9.40;100.00;96817.47;5074301;28;20201;-74
2023/10/31 05:55:18;;;;;;;1.87;0.50;;;;;;;9.36;100.00;96824.31;5073416;28;20200;-73
2023/10/31 05:57:44;;;;;;;0.93;0.37;;;;;;;9.36;100.00;96842.06;5073940;28;20239;-74
2023/10/31 06:00:11;;;;;;;2.13;0.63;;;;;;;9.31;100.00;96848.09;5073135;28;20313;-74
2023/10/31 06:02:37;;;;;;;1.40;0.60;;;;;;;9.29;100.00;96854.69;5072467;28;20193;-74
2023/10/31 06:05:04;;;;;;;1.20;0.70;;;;;;;9.29;100.00;96855.50;5073111;28;20212;-74
2023/10/31 06:07:31;;;;;;;0.77;0.50;;;;;;;9.32;100.00;96855.00;5072947;28;20259;-74
2023/10/31 06:09:57;;;;;;;3.37;1.17;;;;;;;9.35;100.00;96848.41;5073045;28;20212;-74
2023/10/31 06:12:23;;;;;;;2.47;0.80;;;;;;;9.35;100.00;96853.72;5072910;28;20211;-74
2023/10/31 06:14:50;;;;;;;1.93;0.70;;;;;;;9.39;100.00;96850.34;5072875;28;20208;-74
2023/10/31 06:17:17;;;;;;;1.23;0.77;;;;;;;9.44;100.00;96854.94;5072532;28;20219;-74
2023/10/31 06:19:45;;;;;;;1.03;0.60;;;;;;;9.41;100.00;96852.78;5073034;28;20201;-74
2023/10/31 06:22:12;;;;;;;1.13;0.53;;;;;;;9.41;100.00;96861.53;5072467;28;20568;-74
2023/10/31 06:24:40;;;;;;;1.17;0.60;;;;;;;9.45;100.00;96870.59;5072326;28;20211;-74
2023/10/31 06:27:06;;;;;;;0.50;0.50;;;;;;;9.45;100.00;96880.41;5072501;28;20203;-74
2023/10/31 06:29:33;;;;;;;1.97;0.50;;;;;;;9.45;100.00;96880.41;5072259;28;20709;-74
2023/10/31 06:31:59;;;;;;;1.27;0.40;;;;;;;9.59;100.00;96873.75;5072724;28;20217;-74
2023/10/31 06:34:26;;;;;;;0.47;0.40;;;;;;;9.58;100.00;96877.44;5072169;28;20200;-74
2023/10/31 06:36:52;;;;;;;0.97;0.50;;;;;;;9.75;100.00;96886.22;5071849;28;20208;-74
2023/10/31 06:39:18;;;;;;;2.70;0.57;;;;;;;9.73;100.00;96888.31;5071937;28;20228;-74
2023/10/31 06:41:45;;;;;;;0.93;0.47;;;;;;;9.76;100.00;96899.25;5072219;28;20212;-74
2023/10/31 06:44:11;;;;;;;2.67;0.50;;;;;;;9.79;100.00;96916.53;5072016;28;20207;-74
2023/10/31 06:46:38;;;;;;;3.27;0.50;;;;;;;9.75;100.00;96923.38;5072378;28;20228;-74
2023/10/31 06:49:04;;;;;;;1.10;0.40;;;;;;;9.76;100.00;96925.78;5072244;28;20659;-74
2023/10/31 06:51:30;;;;;;;2.20;0.50;;;;;;;9.80;100.00;96931.41;5072465;28;20239;-74
2023/10/31 06:53:57;;;;;;;4.10;0.70;;;;;;;9.79;100.00;96927.16;5072167;28;20207;-74
2023/10/31 06:56:23;;;;;;;1.03;0.50;;;;;;;9.81;100.00;96928.53;5072525;28;20200;-74
2023/10/31 06:58:49;;;;;;;1.33;0.70;;;;;;;9.86;100.00;96939.22;5071671;28;20224;-74
2023/10/31 07:01:18;;;;;;;2.27;0.57;;;;;;;9.87;100.00;96940.81;5034704;28;1081297;-74
2023/10/31 07:03:44;;;;;;;0.77;0.60;;;;;;;9.83;100.00;96944.22;5072970;28;20196;-74
2023/10/31 07:06:11;;;;;;;1.57;0.50;;;;;;;9.87;100.00;96932.06;5071591;28;20316;-74
2023/10/31 07:08:37;;;;;;;1.70;0.70;;;;;;;9.85;100.00;96929.66;5072779;28;20238;-74
2023/10/31 07:11:04;;;;;;;2.27;0.60;;;;;;;9.93;100.00;96936.41;5072790;28;20204;-74
2023/10/31 07:13:31;;;;;;;4.33;0.80;;;;;;;9.91;100.00;96941.94;5072801;28;20573;-74
2023/10/31 07:15:57;;;;;;;3.47;0.70;;;;;;;10.02;100.00;96945.56;5073347;28;20200;-74
2023/10/31 07:18:24;;;;;;;1.60;0.73;;;;;;;10.06;100.00;96944.06;5072333;28;20303;-74
2023/10/31 07:20:50;;;;;;;1.73;0.73;;;;;;;10.10;100.00;96943.34;5072077;28;20578;-74
2023/10/31 07:23:17;;;;;;;0.77;0.50;;;;;;;10.13;100.00;96947.34;5072991;28;20290;-74
2023/10/31 07:25:43;;;;;;;3.03;0.70;;;;;;;10.24;100.00;96944.63;5072602;28;20215;-74
2023/10/31 07:28:09;;;;;;;0.60;0.50;;;;;;;10.24;100.00;96954.44;5072299;28;20220;-74
2023/10/31 07:30:36;;;;;;;0.93;0.60;;;;;;;10.20;100.00;96953.31;5072090;28;20205;-74
2023/10/31 07:33:02;;;;;;;1.70;0.63;;;;;;;10.36;100.00;96952.50;5072694;28;20291;-74
2023/10/31 07:35:29;;;;;;;0.83;0.60;;;;;;;10.32;100.00;96956.69;5072295;28;20243;-74
2023/10/31 07:37:55;;;;;;;1.13;0.60;;;;;;;10.43;100.00;96961.09;5072482;28;20316;-74
2023/10/31 07:40:22;;;;;;;1.90;0.70;;;;;;;10.44;100.00;96966.16;5072320;28;20197;-74
2023/10/31 07:42:48;;;;;;;0.80;0.60;;;;;;;10.53;100.00;96961.22;5071816;28;20236;-74
2023/10/31 07:45:15;;;;;;;2.23;0.70;;;;;;;10.42;100.00;96972.78;5072152;28;20299;-74
2023/10/31 07:47:41;;;;;;;2.30;0.60;;;;;;;10.47;100.00;96976.31;5072274;28;20228;-74
2023/10/31 07:50:08;;;;;;;0.80;0.50;;;;;;;10.63;100.00;96974.66;5072040;28;20225;-74
2023/10/31 07:52:34;;;;;;;1.80;0.70;;;;;;;10.53;100.00;96985.16;5072168;28;20548;-74
2023/10/31 07:55:01;;;;;;;1.20;0.60;;;;;;;10.56;100.00;96980.16;5072706;28;20204;-74
2023/10/31 07:57:27;;;;;;;2.10;0.70;;;;;;;10.59;100.00;96989.50;5072097;28;20256;-74
2023/10/31 07:59:53;;;;;;;2.23;0.70;;;;;;;10.57;100.00;96989.75;5071900;28;20288;-74
2023/10/31 08:02:20;;;;;;;1.47;0.63;;;;;;;10.62;100.00;96989.81;5072656;28;20195;-75
2023/10/31 08:04:46;;;;;;;1.83;0.90;;;;;;;10.69;100.00;96993.09;5072083;28;20209;-74
2023/10/31 08:07:13;;;;;;;0.63;0.63;;;;;;;10.76;100.00;96979.63;5072371;28;20212;-74
2023/10/31 08:09:38;;;;;;;1.17;0.60;;;;;;;10.74;100.00;96982.53;5072208;28;20334;-74
2023/10/31 08:12:05;;;;;;;3.70;0.60;;;;;;;10.80;100.00;96986.06;5071753;28;20207;-74
2023/10/31 08:14:31;;;;;;;0.60;0.57;;;;;;;10.83;100.00;96985.56;5072100;28;20699;-74
2023/10/31 08:16:57;;;;;;;2.83;0.70;;;;;;;10.87;100.00;96992.00;5071998;28;20231;-74
2023/10/31 08:19:24;;;;;;;1.17;0.50;;;;;;;10.95;100.00;96996.91;5075981;28;20585;-74
2023/10/31 08:21:50;;;;;;;2.97;0.60;;;;;;;11.02;100.00;97008.97;5076000;28;20295;-74
2023/10/31 08:24:16;;;;;;;0.90;0.60;;;;;;;11.06;100.00;97001.28;5075776;28;20206;-74
2023/10/31 08:26:43;;;;;;;0.70;0.60;;;;;;;11.06;100.00;97006.59;5075720;28;20216;-74
2023/10/31 08:29:09;;;;;;;0.97;0.60;;;;;;;11.10;100.00;97005.06;5075489;28;20559;-74
2023/10/31 08:31:35;;;;;;;0.97;0.50;;;;;;;11.17;100.00;97016.31;5075601;28;20566;-74
2023/10/31 08:34:02;;;;;;;1.17;0.60;;;;;;;11.14;100.00;97014.16;5075647;28;20672;-74
2023/10/31 08:36:30;;;;;;;0.70;0.60;;;;;;;11.24;100.00;97019.59;5075773;28;20203;-74
2023/10/31 08:38:56;;;;;;;0.73;0.53;;;;;;;11.34;100.00;97025.03;5075401;28;20231;-74
2023/10/31 08:41:22;;;;;;;1.93;0.50;;;;;;;11.40;100.00;97024.03;5075694;28;20207;-74
2023/10/31 08:43:48;;;;;;;1.23;0.50;;;;;;;11.36;100.00;97033.59;5075290;28;20690;-74
2023/10/31 08:46:14;;;;;;;2.37;0.60;;;;;;;11.41;100.00;97035.50;5076273;28;20302;-74
2023/10/31 08:48:41;;;;;;;4.00;0.73;;;;;;;11.45;100.00;97031.28;5075260;28;20227;-74
2023/10/31 08:51:07;;;;;;;1.17;0.60;;;;;;;11.52;100.00;97032.69;5075222;28;20206;-74
2023/10/31 08:53:34;;;;;;;0.90;0.60;;;;;;;11.34;100.00;97038.34;5075374;28;20214;-74
2023/10/31 08:56:00;;;;;;;1.30;0.60;;;;;;;11.46;100.00;97033.72;5075301;28;20203;-74
2023/10/31 08:58:26;;;;;;;2.10;0.70;;;;;;;11.41;100.00;97030.19;5075243;28;20353;-74
2023/10/31 09:00:53;;;;;;;2.63;1.17;;;;;;;11.42;100.00;97029.94;5075062;28;20226;-74
2023/10/31 09:03:19;;;;;;;2.53;0.70;;;;;;;11.56;100.00;97027.69;5075326;28;20207;-74
2023/10/31 09:05:46;;;;;;;1.53;0.70;;;;;;;11.58;100.00;97020.25;5075356;28;20290;-74
2023/10/31 09:08:12;;;;;;;2.87;0.70;;;;;;;11.74;100.00;97020.19;5074592;28;20236;-74
2023/10/31 09:10:39;;;;;;;2.40;0.90;;;;;;;11.76;100.00;97030.59;5074801;28;20214;-74
2023/10/31 09:13:05;;;;;;;3.13;0.80;;;;;;;11.74;100.00;97025.53;5074476;28;20210;-74
2023/10/31 09:15:32;;;;;;;1.77;0.97;;;;;;;11.84;100.00;97038.94;5074613;28;20211;-74
2023/10/31 09:17:58;;;;;;;3.13;0.63;;;;;;;11.86;100.00;97039.50;5074577;28;20228;-74
2023/10/31 09:20:25;;;;;;;2.00;0.60;;;;;;;11.74;100.00;97040.69;5074124;28;20210;-74
2023/10/31 09:22:52;;;;;;;1.80;0.73;;;;;;;11.86;100.00;97038.69;5074300;28;20241;-74
2023/10/31 09:25:18;;;;;;;1.30;0.70;;;;;;;11.92;100.00;97043.81;5074763;28;20210;-74
2023/10/31 09:27:45;;;;;;;2.77;0.70;;;;;;;11.98;100.00;97037.47;5074313;28;20314;-74
2023/10/31 09:30:11;;;;;;;2.07;0.87;;;;;;;12.10;100.00;97038.13;5074208;28;20249;-74
2023/10/31 09:32:38;;;;;;;2.50;0.80;;;;;;;12.02;100.00;97038.59;5074217;28;20570;-74
2023/10/31 09:35:05;;;;;;;2.53;0.60;;;;;;;11.93;100.00;97031.31;5075207;28;20225;-75
2023/10/31 09:37:31;;;;;;;1.40;0.67;;;;;;;12.05;100.00;97032.75;5074234;28;20228;-74
2023/10/31 09:39:58;;;;;;;1.17;0.73;;;;;;;11.93;100.00;97033.97;5073663;28;20666;-74
2023/10/31 09:42:25;;;;;;;2.00;0.80;;;;;;;11.97;100.00;97029.72;5073843;28;20645;-74
2023/10/31 09:44:51;;;;;;;4.00;0.80;;;;;;;11.80;100.00;97035.16;5074386;28;20217;-74
2023/10/31 09:47:18;;;;;;;1.43;0.80;;;;;;;11.88;100.00;97029.41;5073912;28;20208;-74
2023/10/31 09:49:45;;;;;;;2.27;0.87;;;;;;;12.01;100.00;97044.16;5074005;28;20234;-74
2023/10/31 09:52:11;;;;;;;1.43;0.70;;;;;;;12.00;100.00;97035.38;5056451;28;20218;-74
2023/10/31 09:54:40;;;;;;;2.87;0.97;;;;;;;12.03;100.00;97031.41;5074009;28;20211;-74
2023/10/31 09:57:06;;;;;;;2.57;1.10;;;;;;;12.20;100.00;97035.56;5073342;28;20299;-74
2023/10/31 09:59:32;;;;;;;5.73;1.13;;;;;;;12.19;100.00;97033.94;5073490;28;20671;-74
2023/10/31 10:01:59;;;;;;;1.40;0.90;;;;;;;12.35;100.00;97032.22;5074017;28;20216;-74
2023/10/31 10:04:26;;;;;;;2.03;0.90;;;;;;;12.36;100.00;97026.63;5074102;28;20210;-74
2023/10/31 10:07:00;;;;;;;4.83;1.03;;;;;;;12.21;100.00;97029.16;5074031;28;20208;-74
2023/10/31 10:09:27;;;;;;;2.67;0.90;;;;;;;12.29;100.00;97030.56;5073781;28;20235;-74
2023/10/31 10:11:54;;;;;;;2.33;0.73;;;;;;;12.21;100.00;97029.16;5073583;28;20200;-74
2023/10/31 10:14:21;;;;;;;2.20;0.90;;;;;;;12.18;100.00;97032.34;5074244;28;20249;-74
2023/10/31 10:16:47;;;;;;;2.27;1.03;;;;;;;12.20;100.00;97038.22;5073802;28;20211;-74
2023/10/31 10:19:19;;;;;;;3.87;0.93;;;;;;;12.19;100.00;97033.94;5073549;28;20227;-74
2023/10/31 10:21:50;;;;;;;0.70;0.70;;;;;;;12.11;100.00;97041.59;5073827;28;20207;-74
2023/10/31 10:24:18;;;;;;;3.13;0.90;;;;;;;12.14;100.00;97033.91;5073584;28;20215;-74
2023/10/31 10:26:45;;;;;;;1.63;1.00;;;;;;;12.11;100.00;97045.06;5073116;28;20663;-74
2023/10/31 10:29:12;;;;;;;2.40;0.97;;;;;;;12.30;100.00;97040.97;5072830;28;20228;-74
2023/10/31 10:31:39;;;;;;;3.37;1.20;;;;;;;12.23;100.00;97045.72;5073176;28;20219;-74
2023/10/31 10:34:05;;;;;;;3.27;1.17;;;;;;;12.22;100.00;97044.13;5073030;28;20204;-74
2023/10/31 10:36:34;;;;;;;3.47;1.10;;;;;;;12.28;100.00;97045.75;5072864;28;20208;-74
2023/10/31 10:39:01;;;;;;;1.80;0.97;;;;;;;12.28;100.00;97063.59;5072828;28;20230;-74
2023/10/31 10:41:28;;;;;;;4.00;1.17;;;;;;;12.20;100.00;97061.41;5073108;28;20295;-74
2023/10/31 10:44:05;;;;;;;2.13;0.97;;;;;;;12.18;100.00;97055.50;5073456;28;20199;-74
2023/10/31 10:46:35;;;;;;;2.63;1.00;;;;;;;12.17;100.00;97064.56;5073682;28;20215;-74
2023/10/31 10:49:06;;;;;;;6.27;1.30;;;;;;;12.14;100.00;97060.56;5073310;28;20228;-74
2023/10/31 10:52:20;;;;;;;1.80;1.10;;;;;;;12.06;100.00;97061.00;5073333;28;20235;-75
2023/10/31 10:55:08;;;;;;;6.70;2.80;;;;;;;12.18;100.00;97061.66;5071418;28;20234;-74
2023/10/31 10:58:13;;;;;;;8.73;3.60;;;;;;;12.17;100.00;97070.69;5072603;28;20295;-74
2023/10/31 11:00:40;;;;;;;7.83;3.93;;;;;;;12.22;100.00;97065.44;5059772;28;20216;-74
2023/10/31 11:03:08;;;;;;;7.83;3.00;;;;;;;12.24;100.00;97070.47;5072547;28;20605;-74
2023/10/31 11:05:36;;;;;;;6.67;2.53;;;;;;;12.31;100.00;97065.75;5072690;28;20681;-74
2023/10/31 11:08:03;;;;;;;4.40;1.77;;;;;;;12.43;100.00;97063.75;5072909;28;20234;-74
2023/10/31 11:10:30;;;;;;;3.97;1.47;;;;;;;12.28;100.00;97064.41;5073165;28;20216;-74
2023/10/31 11:12:57;;;;;;;2.33;0.83;;;;;;;12.28;100.00;97059.06;5072709;28;20671;-74
2023/10/31 11:15:25;;;;;;;2.43;0.70;;;;;;;12.39;100.00;97074.09;5073312;28;20208;-74
2023/10/31 11:17:53;;;;;;;1.53;0.90;;;;;;;12.44;100.00;97068.78;5072782;28;20230;-74
2023/10/31 11:20:20;;;;;;;2.47;1.03;;;;;;;12.55;100.00;97080.34;5072937;28;20212;-75
2023/10/31 11:22:48;;;;;;;2.37;0.97;;;;;;;12.50;100.00;97069.66;5073106;28;20287;-74
2023/10/31 11:25:23;;;;;;;2.40;1.00;;;;;;;12.57;100.00;97068.38;5072555;28;20564;-74